• Join FlightAware (Why Join?)
  • Login
  • US Flag 
Trick or treat! (Boo!!) 
02:38AM EDT


 

Airport Tracker/Info


-or-


 

Live Flight TrackerFlight Track Log ✈ TAM3844 ✈ 09-Jul-2013 ✈ SBCF / CNF - SBBR / BSB

Flight Track Log - Related Links

Times and Time Zones

All times are in EDT time to prevent confusion due to time zone crossing. See the TAM3844 flight status page for this flight to view local times or setup timezone preferences in your user account.

Time Position Orientation Groundspeed Altitude Reporting Facility
EDT Latitude Longitude Course Direction KTS MPH feet Rate Location/Type
05:24PM -18.0277 -45.6791 314° West  Level Estimated
05:25PM -17.9739 -45.7355 315° West  Level Estimated
05:26PM -17.9201 -45.7919 315° West  Level Estimated
05:27PM -17.8663 -45.8483 315° West  Level Estimated
05:28PM -17.8124 -45.9047 315° West  Level Estimated
05:29PM -17.7586 -45.9610 315° West  Level Estimated
05:30PM -17.7047 -46.0173 315° West  Level Estimated
05:31PM -17.6508 -46.0735 315° West  Level Estimated
05:32PM -17.5969 -46.1297 315° West  Level Estimated
05:33PM -17.5429 -46.1859 315° West  Level Estimated
05:34PM -17.4890 -46.2421 315° West  Level Estimated
05:35PM -17.4350 -46.2982 315° West  Level Estimated
05:36PM -17.3811 -46.3543 315° West  Level Estimated
05:37PM -17.3271 -46.4103 315° West  Level Estimated
05:38PM -17.2731 -46.4664 315° West  Level Estimated
05:39PM -17.2190 -46.5223 315° West  Level Estimated
05:40PM -17.1650 -46.5783 315° West  Level Estimated
05:41PM -17.1110 -46.6342 315° West  Level Estimated
05:42PM -17.0569 -46.6901 315° West  Level Estimated
05:43PM -17.0028 -46.7459 315° West  Level Estimated
05:44PM -16.9487 -46.8018 315° West  Level Estimated
05:45PM -16.8946 -46.8576 315° West  Level Estimated
05:46PM -16.8405 -46.9133 315° West  Level Estimated
05:47PM -16.7863 -46.9690 315° West  Level Estimated
05:48PM -16.7322 -47.0247 315° West  Level Estimated
05:49PM -16.6780 -47.0804 315° West  Level Estimated
05:50PM -16.6238 -47.1360 315° West  Level Estimated
05:51PM -16.5696 -47.1916 315° West  Level Estimated
05:52PM -16.5154 -47.2472 315° West  Level Estimated
05:53PM -16.4612 -47.3027 316° Northwest  Level Estimated
05:54PM -16.4069 -47.3582 316° Northwest  Level Estimated
05:55PM -16.3526 -47.4137 316° Northwest  Level Estimated
05:56PM -16.2984 -47.4691 316° Northwest  Level Estimated
05:57PM -16.2441 -47.5245 316° Northwest  Level Estimated
05:58PM -16.1898 -47.5799 316° Northwest  Level Estimated
05:59PM -16.1355 -47.6353 316° Northwest  Level Estimated
06:00PM -16.0811 -47.6906 316° Northwest  Level Estimated
06:01PM -16.0268 -47.7459 316° Northwest  Level Estimated
06:02PM -15.9724 -47.8011 316° Northwest  Level Estimated
06:03PM -15.9180 -47.8564 316° Northwest  Level Estimated
06:04PM -15.8637 -47.9116 316° Northwest  Level Estimated
06:05PM -15.8626 -47.9127 316° Northwest  Level Estimated
06:06PM -15.8626 -47.9127 128° Southeast  Level Estimated
06:07PM -15.8626 -47.9127 128° Southeast  Level Estimated
06:08PM -15.8626 -47.9127 128° Southeast  Level Estimated
06:09PM -15.8626 -47.9127 128° Southeast  Level Estimated
06:10PM -15.8626 -47.9127 128° Southeast  Level Estimated
06:11PM -15.8626 -47.9127 128° Southeast  Level Estimated
06:12PM -15.8626 -47.9127 128° Southeast  Level Estimated
06:13PM -15.8626 -47.9127 128° Southeast  Level Estimated
06:14PM -15.8626 -47.9127 128° Southeast  Level Estimated
06:15PM -15.8626 -47.9127 128° Southeast  Level Estimated
06:16PM -15.8626 -47.9127 128° Southeast  Level Estimated
06:17PM -15.8626 -47.9127 128° Southeast  Level Estimated
06:18PM -15.8626 -47.9127 128° Southeast  Level Estimated
06:19PM -15.8626 -47.9127 128° Southeast  Level Estimated
06:20PM -15.8626 -47.9127 128° Southeast  Level Estimated